sensor_id;sensor_type;location;lat;lon;timestamp;P1;durP1;ratioP1;P2;durP2;ratioP2
35376;SDS011;21480;51.642;4.834;2022-08-24T00:01:06;122.83;;;113.40;;
35376;SDS011;21480;51.642;4.834;2022-08-24T00:03:34;121.70;;;113.00;;
35376;SDS011;21480;51.642;4.834;2022-08-24T00:06:01;121.53;;;112.60;;
35376;SDS011;21480;51.642;4.834;2022-08-24T00:08:28;123.20;;;114.03;;
35376;SDS011;21480;51.642;4.834;2022-08-24T00:10:54;122.97;;;113.67;;
35376;SDS011;21480;51.642;4.834;2022-08-24T00:13:19;123.37;;;114.07;;
35376;SDS011;21480;51.642;4.834;2022-08-24T00:15:45;125.67;;;116.20;;
35376;SDS011;21480;51.642;4.834;2022-08-24T00:18:11;124.43;;;115.13;;
35376;SDS011;21480;51.642;4.834;2022-08-24T00:20:37;123.43;;;114.60;;
35376;SDS011;21480;51.642;4.834;2022-08-24T00:23:04;122.93;;;114.13;;
35376;SDS011;21480;51.642;4.834;2022-08-24T00:25:31;123.33;;;114.43;;
35376;SDS011;21480;51.642;4.834;2022-08-24T00:27:57;124.03;;;115.03;;
35376;SDS011;21480;51.642;4.834;2022-08-24T00:30:23;122.00;;;113.20;;
35376;SDS011;21480;51.642;4.834;2022-08-24T00:32:49;122.43;;;113.53;;
35376;SDS011;21480;51.642;4.834;2022-08-24T00:35:16;120.63;;;112.03;;
35376;SDS011;21480;51.642;4.834;2022-08-24T00:37:44;123.10;;;114.10;;
35376;SDS011;21480;51.642;4.834;2022-08-24T00:40:13;121.53;;;112.83;;
35376;SDS011;21480;51.642;4.834;2022-08-24T00:42:42;123.30;;;114.20;;
35376;SDS011;21480;51.642;4.834;2022-08-24T00:45:08;124.07;;;114.97;;
35376;SDS011;21480;51.642;4.834;2022-08-24T00:48:19;125.70;;;116.23;;
35376;SDS011;21480;51.642;4.834;2022-08-24T00:53:32;126.27;;;116.47;;
35376;SDS011;21480;51.642;4.834;2022-08-24T00:56:04;124.50;;;114.90;;
35376;SDS011;21480;51.642;4.834;2022-08-24T00:58:38;128.90;;;118.80;;
35376;SDS011;21480;51.642;4.834;2022-08-24T01:01:08;127.97;;;117.70;;
35376;SDS011;21480;51.642;4.834;2022-08-24T01:03:38;128.50;;;118.47;;
35376;SDS011;21480;51.642;4.834;2022-08-24T01:06:04;127.23;;;117.93;;
35376;SDS011;21480;51.642;4.834;2022-08-24T01:08:30;126.60;;;117.33;;
35376;SDS011;21480;51.642;4.834;2022-08-24T01:10:57;123.90;;;114.77;;
35376;SDS011;21480;51.642;4.834;2022-08-24T01:13:27;128.63;;;118.87;;
35376;SDS011;21480;51.642;4.834;2022-08-24T01:15:56;126.73;;;117.30;;
35376;SDS011;21480;51.642;4.834;2022-08-24T01:18:25;126.87;;;117.17;;
35376;SDS011;21480;51.642;4.834;2022-08-24T01:21:17;126.67;;;117.10;;
35376;SDS011;21480;51.642;4.834;2022-08-24T01:23:45;125.63;;;116.23;;
35376;SDS011;21480;51.642;4.834;2022-08-24T01:26:20;125.00;;;115.70;;
35376;SDS011;21480;51.642;4.834;2022-08-24T01:28:54;125.20;;;115.80;;
35376;SDS011;21480;51.642;4.834;2022-08-24T01:31:24;125.43;;;115.87;;
35376;SDS011;21480;51.642;4.834;2022-08-24T01:33:51;125.73;;;116.23;;
35376;SDS011;21480;51.642;4.834;2022-08-24T01:39:23;123.53;;;114.37;;
35376;SDS011;21480;51.642;4.834;2022-08-24T01:41:51;124.47;;;115.07;;
35376;SDS011;21480;51.642;4.834;2022-08-24T01:44:17;124.43;;;114.97;;
35376;SDS011;21480;51.642;4.834;2022-08-24T01:46:45;125.60;;;116.20;;
35376;SDS011;21480;51.642;4.834;2022-08-24T01:49:13;125.93;;;116.27;;
35376;SDS011;21480;51.642;4.834;2022-08-24T01:51:40;127.00;;;117.60;;
35376;SDS011;21480;51.642;4.834;2022-08-24T01:54:07;126.10;;;116.60;;
35376;SDS011;21480;51.642;4.834;2022-08-24T01:56:34;127.87;;;117.97;;
35376;SDS011;21480;51.642;4.834;2022-08-24T01:59:00;130.27;;;120.00;;
35376;SDS011;21480;51.642;4.834;2022-08-24T02:01:27;129.00;;;118.90;;
35376;SDS011;21480;51.642;4.834;2022-08-24T02:03:56;134.63;;;123.13;;
35376;SDS011;21480;51.642;4.834;2022-08-24T02:06:23;131.57;;;121.00;;
35376;SDS011;21480;51.642;4.834;2022-08-24T02:08:51;127.87;;;118.07;;
35376;SDS011;21480;51.642;4.834;2022-08-24T02:11:17;126.93;;;116.87;;
35376;SDS011;21480;51.642;4.834;2022-08-24T02:13:42;126.60;;;116.90;;
35376;SDS011;21480;51.642;4.834;2022-08-24T02:16:08;127.20;;;117.40;;
35376;SDS011;21480;51.642;4.834;2022-08-24T02:18:34;129.23;;;119.30;;
35376;SDS011;21480;51.642;4.834;2022-08-24T02:21:01;128.17;;;118.00;;
35376;SDS011;21480;51.642;4.834;2022-08-24T02:23:28;127.77;;;118.07;;
35376;SDS011;21480;51.642;4.834;2022-08-24T02:25:54;128.53;;;118.57;;
35376;SDS011;21480;51.642;4.834;2022-08-24T02:28:20;128.03;;;118.10;;
35376;SDS011;21480;51.642;4.834;2022-08-24T02:30:47;131.60;;;121.10;;
35376;SDS011;21480;51.642;4.834;2022-08-24T02:33:13;126.63;;;116.97;;
35376;SDS011;21480;51.642;4.834;2022-08-24T02:35:40;128.70;;;118.90;;
35376;SDS011;21480;51.642;4.834;2022-08-24T02:38:06;126.37;;;116.80;;
35376;SDS011;21480;51.642;4.834;2022-08-24T02:40:33;131.57;;;121.00;;
35376;SDS011;21480;51.642;4.834;2022-08-24T02:43:00;129.37;;;119.37;;
35376;SDS011;21480;51.642;4.834;2022-08-24T02:45:26;129.97;;;119.73;;
35376;SDS011;21480;51.642;4.834;2022-08-24T02:47:51;129.53;;;119.43;;
35376;SDS011;21480;51.642;4.834;2022-08-24T02:50:18;131.20;;;120.53;;
35376;SDS011;21480;51.642;4.834;2022-08-24T02:52:44;129.30;;;119.33;;
35376;SDS011;21480;51.642;4.834;2022-08-24T02:55:11;129.73;;;118.90;;
35376;SDS011;21480;51.642;4.834;2022-08-24T02:57:39;130.97;;;120.80;;
35376;SDS011;21480;51.642;4.834;2022-08-24T03:00:06;128.57;;;118.67;;
35376;SDS011;21480;51.642;4.834;2022-08-24T03:02:34;130.73;;;120.50;;
35376;SDS011;21480;51.642;4.834;2022-08-24T03:05:01;132.87;;;121.93;;
35376;SDS011;21480;51.642;4.834;2022-08-24T03:07:27;134.97;;;123.83;;
35376;SDS011;21480;51.642;4.834;2022-08-24T03:09:53;130.07;;;119.67;;
35376;SDS011;21480;51.642;4.834;2022-08-24T03:12:18;132.83;;;122.20;;
35376;SDS011;21480;51.642;4.834;2022-08-24T03:14:45;131.57;;;121.40;;
35376;SDS011;21480;51.642;4.834;2022-08-24T03:17:10;126.80;;;117.00;;
35376;SDS011;21480;51.642;4.834;2022-08-24T03:19:36;127.67;;;118.07;;
35376;SDS011;21480;51.642;4.834;2022-08-24T03:22:03;129.53;;;119.43;;
35376;SDS011;21480;51.642;4.834;2022-08-24T03:24:29;127.93;;;118.07;;
35376;SDS011;21480;51.642;4.834;2022-08-24T03:26:54;130.83;;;119.93;;
35376;SDS011;21480;51.642;4.834;2022-08-24T03:29:20;127.17;;;117.23;;
35376;SDS011;21480;51.642;4.834;2022-08-24T03:31:46;127.90;;;118.00;;
35376;SDS011;21480;51.642;4.834;2022-08-24T03:34:12;128.63;;;118.63;;
35376;SDS011;21480;51.642;4.834;2022-08-24T03:36:39;132.10;;;121.73;;
35376;SDS011;21480;51.642;4.834;2022-08-24T03:39:10;134.77;;;123.57;;
35376;SDS011;21480;51.642;4.834;2022-08-24T03:41:36;133.97;;;122.70;;
35376;SDS011;21480;51.642;4.834;2022-08-24T03:44:02;134.37;;;123.63;;
35376;SDS011;21480;51.642;4.834;2022-08-24T03:46:32;132.47;;;121.67;;
35376;SDS011;21480;51.642;4.834;2022-08-24T03:49:01;132.73;;;121.57;;
35376;SDS011;21480;51.642;4.834;2022-08-24T03:51:30;132.50;;;121.73;;
35376;SDS011;21480;51.642;4.834;2022-08-24T03:53:56;131.57;;;120.90;;
35376;SDS011;21480;51.642;4.834;2022-08-24T03:56:24;132.90;;;121.77;;
35376;SDS011;21480;51.642;4.834;2022-08-24T03:58:50;134.53;;;123.70;;
35376;SDS011;21480;51.642;4.834;2022-08-24T04:01:17;130.37;;;120.03;;
35376;SDS011;21480;51.642;4.834;2022-08-24T04:03:43;134.20;;;123.53;;
35376;SDS011;21480;51.642;4.834;2022-08-24T04:06:11;133.00;;;122.10;;
35376;SDS011;21480;51.642;4.834;2022-08-24T04:08:38;133.50;;;122.57;;
35376;SDS011;21480;51.642;4.834;2022-08-24T04:11:09;134.20;;;123.20;;
35376;SDS011;21480;51.642;4.834;2022-08-24T04:13:40;135.63;;;124.07;;
35376;SDS011;21480;51.642;4.834;2022-08-24T04:16:06;135.83;;;124.43;;
35376;SDS011;21480;51.642;4.834;2022-08-24T04:18:34;137.03;;;125.53;;
35376;SDS011;21480;51.642;4.834;2022-08-24T04:20:59;135.63;;;124.00;;
35376;SDS011;21480;51.642;4.834;2022-08-24T04:23:25;134.03;;;122.80;;
35376;SDS011;21480;51.642;4.834;2022-08-24T04:25:51;136.53;;;124.90;;
35376;SDS011;21480;51.642;4.834;2022-08-24T04:28:18;135.33;;;123.73;;
35376;SDS011;21480;51.642;4.834;2022-08-24T04:30:45;133.33;;;122.17;;
35376;SDS011;21480;51.642;4.834;2022-08-24T04:33:15;132.80;;;122.03;;
35376;SDS011;21480;51.642;4.834;2022-08-24T04:35:43;134.23;;;122.57;;
35376;SDS011;21480;51.642;4.834;2022-08-24T04:38:12;131.53;;;120.97;;
35376;SDS011;21480;51.642;4.834;2022-08-24T04:40:39;131.00;;;120.60;;
35376;SDS011;21480;51.642;4.834;2022-08-24T04:43:06;128.40;;;118.53;;
35376;SDS011;21480;51.642;4.834;2022-08-24T04:45:36;130.20;;;120.03;;
35376;SDS011;21480;51.642;4.834;2022-08-24T04:48:03;127.57;;;117.27;;
35376;SDS011;21480;51.642;4.834;2022-08-24T04:50:29;127.67;;;117.67;;
35376;SDS011;21480;51.642;4.834;2022-08-24T04:52:57;128.33;;;118.53;;
35376;SDS011;21480;51.642;4.834;2022-08-24T04:55:24;127.83;;;117.63;;
35376;SDS011;21480;51.642;4.834;2022-08-24T04:57:50;130.03;;;119.77;;
35376;SDS011;21480;51.642;4.834;2022-08-24T05:00:16;131.00;;;120.70;;
35376;SDS011;21480;51.642;4.834;2022-08-24T05:02:42;128.30;;;117.93;;
35376;SDS011;21480;51.642;4.834;2022-08-24T05:05:08;129.77;;;119.37;;
35376;SDS011;21480;51.642;4.834;2022-08-24T05:07:35;129.93;;;119.83;;
35376;SDS011;21480;51.642;4.834;2022-08-24T05:10:02;132.83;;;122.03;;
35376;SDS011;21480;51.642;4.834;2022-08-24T05:12:29;130.10;;;119.83;;
35376;SDS011;21480;51.642;4.834;2022-08-24T05:14:56;132.13;;;121.40;;
35376;SDS011;21480;51.642;4.834;2022-08-24T05:17:22;130.43;;;120.03;;
35376;SDS011;21480;51.642;4.834;2022-08-24T05:19:49;130.87;;;120.53;;
35376;SDS011;21480;51.642;4.834;2022-08-24T05:22:15;128.03;;;118.20;;
35376;SDS011;21480;51.642;4.834;2022-08-24T05:24:41;128.17;;;118.10;;
35376;SDS011;21480;51.642;4.834;2022-08-24T05:27:12;130.47;;;119.90;;
35376;SDS011;21480;51.642;4.834;2022-08-24T05:29:39;129.53;;;119.53;;
35376;SDS011;21480;51.642;4.834;2022-08-24T05:32:05;128.53;;;118.37;;
35376;SDS011;21480;51.642;4.834;2022-08-24T05:34:31;128.37;;;118.20;;
35376;SDS011;21480;51.642;4.834;2022-08-24T05:36:57;128.87;;;118.73;;
35376;SDS011;21480;51.642;4.834;2022-08-24T05:39:23;128.67;;;118.67;;
35376;SDS011;21480;51.642;4.834;2022-08-24T05:41:49;129.13;;;119.43;;
35376;SDS011;21480;51.642;4.834;2022-08-24T05:44:15;129.67;;;119.60;;
35376;SDS011;21480;51.642;4.834;2022-08-24T05:46:43;129.00;;;118.93;;
35376;SDS011;21480;51.642;4.834;2022-08-24T05:49:12;128.70;;;118.90;;
35376;SDS011;21480;51.642;4.834;2022-08-24T05:51:38;127.90;;;118.17;;
35376;SDS011;21480;51.642;4.834;2022-08-24T05:54:06;129.27;;;119.07;;
35376;SDS011;21480;51.642;4.834;2022-08-24T05:56:33;129.33;;;119.37;;
35376;SDS011;21480;51.642;4.834;2022-08-24T05:59:00;130.03;;;119.63;;
35376;SDS011;21480;51.642;4.834;2022-08-24T06:01:26;126.90;;;117.03;;
35376;SDS011;21480;51.642;4.834;2022-08-24T06:03:53;128.90;;;119.10;;
35376;SDS011;21480;51.642;4.834;2022-08-24T06:06:20;128.80;;;118.73;;
35376;SDS011;21480;51.642;4.834;2022-08-24T06:08:48;129.23;;;119.33;;
35376;SDS011;21480;51.642;4.834;2022-08-24T06:11:19;128.50;;;118.43;;
35376;SDS011;21480;51.642;4.834;2022-08-24T06:13:48;133.50;;;122.90;;
35376;SDS011;21480;51.642;4.834;2022-08-24T06:16:18;132.50;;;122.00;;
35376;SDS011;21480;51.642;4.834;2022-08-24T06:18:45;132.43;;;121.80;;
35376;SDS011;21480;51.642;4.834;2022-08-24T06:21:13;131.63;;;121.63;;
35376;SDS011;21480;51.642;4.834;2022-08-24T06:23:41;133.97;;;123.40;;
35376;SDS011;21480;51.642;4.834;2022-08-24T06:26:08;129.27;;;119.30;;
35376;SDS011;21480;51.642;4.834;2022-08-24T06:28:54;132.87;;;122.63;;
35376;SDS011;21480;51.642;4.834;2022-08-24T06:31:21;135.77;;;124.87;;
35376;SDS011;21480;51.642;4.834;2022-08-24T06:33:51;134.73;;;124.13;;
35376;SDS011;21480;51.642;4.834;2022-08-24T06:36:17;134.80;;;123.90;;
35376;SDS011;21480;51.642;4.834;2022-08-24T06:38:44;135.00;;;124.33;;
35376;SDS011;21480;51.642;4.834;2022-08-24T06:41:10;137.13;;;126.10;;
35376;SDS011;21480;51.642;4.834;2022-08-24T06:43:36;135.70;;;125.17;;
35376;SDS011;21480;51.642;4.834;2022-08-24T06:46:02;141.43;;;130.30;;
35376;SDS011;21480;51.642;4.834;2022-08-24T06:48:28;138.57;;;127.10;;
35376;SDS011;21480;51.642;4.834;2022-08-24T06:50:55;138.50;;;127.50;;
35376;SDS011;21480;51.642;4.834;2022-08-24T06:53:23;140.43;;;129.10;;
35376;SDS011;21480;51.642;4.834;2022-08-24T06:55:49;135.20;;;124.43;;
35376;SDS011;21480;51.642;4.834;2022-08-24T06:58:21;137.57;;;126.23;;
35376;SDS011;21480;51.642;4.834;2022-08-24T07:00:47;139.10;;;127.47;;
35376;SDS011;21480;51.642;4.834;2022-08-24T07:03:23;132.83;;;122.63;;
35376;SDS011;21480;51.642;4.834;2022-08-24T07:05:54;134.50;;;123.83;;
35376;SDS011;21480;51.642;4.834;2022-08-24T07:08:21;136.37;;;125.60;;
35376;SDS011;21480;51.642;4.834;2022-08-24T07:10:48;134.40;;;123.70;;
35376;SDS011;21480;51.642;4.834;2022-08-24T07:13:14;137.37;;;126.37;;
35376;SDS011;21480;51.642;4.834;2022-08-24T07:15:40;133.60;;;123.07;;
35376;SDS011;21480;51.642;4.834;2022-08-24T07:18:09;136.90;;;126.33;;
35376;SDS011;21480;51.642;4.834;2022-08-24T07:20:37;135.80;;;125.10;;
35376;SDS011;21480;51.642;4.834;2022-08-24T07:23:04;132.47;;;121.97;;
35376;SDS011;21480;51.642;4.834;2022-08-24T07:25:31;132.67;;;122.17;;
35376;SDS011;21480;51.642;4.834;2022-08-24T07:27:57;133.13;;;122.93;;
35376;SDS011;21480;51.642;4.834;2022-08-24T07:30:25;132.20;;;121.93;;
35376;SDS011;21480;51.642;4.834;2022-08-24T07:32:52;132.33;;;122.47;;
35376;SDS011;21480;51.642;4.834;2022-08-24T07:35:18;131.17;;;121.37;;
35376;SDS011;21480;51.642;4.834;2022-08-24T07:37:43;132.27;;;121.90;;
35376;SDS011;21480;51.642;4.834;2022-08-24T07:40:09;131.67;;;121.83;;
35376;SDS011;21480;51.642;4.834;2022-08-24T07:42:36;130.07;;;120.03;;
35376;SDS011;21480;51.642;4.834;2022-08-24T07:45:04;129.80;;;120.20;;
35376;SDS011;21480;51.642;4.834;2022-08-24T07:47:31;128.83;;;118.97;;
35376;SDS011;21480;51.642;4.834;2022-08-24T07:49:56;128.40;;;118.37;;
35376;SDS011;21480;51.642;4.834;2022-08-24T07:52:22;125.73;;;116.57;;
35376;SDS011;21480;51.642;4.834;2022-08-24T07:54:48;127.43;;;117.23;;
35376;SDS011;21480;51.642;4.834;2022-08-24T07:57:14;125.90;;;116.37;;
35376;SDS011;21480;51.642;4.834;2022-08-24T07:59:40;125.77;;;116.43;;
35376;SDS011;21480;51.642;4.834;2022-08-24T08:02:05;120.57;;;112.13;;
35376;SDS011;21480;51.642;4.834;2022-08-24T08:04:32;120.23;;;111.77;;
35376;SDS011;21480;51.642;4.834;2022-08-24T08:06:58;120.00;;;111.60;;
35376;SDS011;21480;51.642;4.834;2022-08-24T08:09:25;121.13;;;112.27;;
35376;SDS011;21480;51.642;4.834;2022-08-24T08:11:51;120.13;;;111.63;;
35376;SDS011;21480;51.642;4.834;2022-08-24T08:14:17;119.03;;;110.70;;
35376;SDS011;21480;51.642;4.834;2022-08-24T08:16:43;119.57;;;111.17;;
35376;SDS011;21480;51.642;4.834;2022-08-24T08:19:09;121.57;;;113.07;;
35376;SDS011;21480;51.642;4.834;2022-08-24T08:21:46;122.13;;;113.20;;
35376;SDS011;21480;51.642;4.834;2022-08-24T08:24:32;120.87;;;112.57;;
35376;SDS011;21480;51.642;4.834;2022-08-24T08:27:00;118.27;;;109.97;;
35376;SDS011;21480;51.642;4.834;2022-08-24T08:29:26;118.77;;;110.53;;
35376;SDS011;21480;51.642;4.834;2022-08-24T08:31:52;121.43;;;112.77;;
35376;SDS011;21480;51.642;4.834;2022-08-24T08:34:18;118.03;;;110.23;;
35376;SDS011;21480;51.642;4.834;2022-08-24T08:36:44;117.13;;;109.13;;
35376;SDS011;21480;51.642;4.834;2022-08-24T08:39:11;119.33;;;111.00;;
35376;SDS011;21480;51.642;4.834;2022-08-24T08:55:56;120.27;;;111.87;;
35376;SDS011;21480;51.642;4.834;2022-08-24T09:12:06;118.40;;;110.50;;
35376;SDS011;21480;51.642;4.834;2022-08-24T09:22:44;117.33;;;109.47;;
35376;SDS011;21480;51.642;4.834;2022-08-24T09:25:17;117.75;;;109.75;;
35376;SDS011;21480;51.642;4.834;2022-08-24T09:30:28;117.63;;;109.72;;
35376;SDS011;21480;51.642;4.834;2022-08-24T09:39:18;116.70;;;109.13;;
35376;SDS011;21480;51.642;4.834;2022-08-24T10:14:56;114.57;;;106.88;;
35376;SDS011;21480;51.642;4.834;2022-08-24T10:37:37;112.70;;;105.35;;
35376;SDS011;21480;51.642;4.834;2022-08-24T10:40:13;113.57;;;106.17;;
35376;SDS011;21480;51.642;4.834;2022-08-24T10:46:11;114.00;;;106.72;;
35376;SDS011;21480;51.642;4.834;2022-08-24T10:51:41;114.25;;;106.85;;
35376;SDS011;21480;51.642;4.834;2022-08-24T10:54:29;114.88;;;107.28;;
35376;SDS011;21480;51.642;4.834;2022-08-24T10:57:05;112.55;;;105.25;;
35376;SDS011;21480;51.642;4.834;2022-08-24T10:59:44;112.90;;;105.90;;
35376;SDS011;21480;51.642;4.834;2022-08-24T11:02:28;115.60;;;108.20;;
35376;SDS011;21480;51.642;4.834;2022-08-24T11:04:57;112.70;;;105.60;;
35376;SDS011;21480;51.642;4.834;2022-08-24T11:07:25;113.65;;;106.55;;
35376;SDS011;21480;51.642;4.834;2022-08-24T11:09:53;112.78;;;105.57;;
35376;SDS011;21480;51.642;4.834;2022-08-24T11:14:50;112.38;;;105.38;;
35376;SDS011;21480;51.642;4.834;2022-08-24T11:17:20;112.18;;;105.18;;
35376;SDS011;21480;51.642;4.834;2022-08-24T11:19:48;112.72;;;105.43;;
35376;SDS011;21480;51.642;4.834;2022-08-24T11:25:03;112.68;;;105.53;;
35376;SDS011;21480;51.642;4.834;2022-08-24T11:27:47;112.72;;;105.72;;
35376;SDS011;21480;51.642;4.834;2022-08-24T11:30:22;112.90;;;105.18;;
35376;SDS011;21480;51.642;4.834;2022-08-24T11:32:54;113.82;;;106.57;;
35376;SDS011;21480;51.642;4.834;2022-08-24T11:35:26;113.65;;;106.53;;
35376;SDS011;21480;51.642;4.834;2022-08-24T11:37:56;113.18;;;106.18;;
35376;SDS011;21480;51.642;4.834;2022-08-24T11:43:42;113.78;;;106.63;;
35376;SDS011;21480;51.642;4.834;2022-08-24T11:51:55;113.95;;;106.93;;
35376;SDS011;21480;51.642;4.834;2022-08-24T11:54:44;112.47;;;105.57;;
35376;SDS011;21480;51.642;4.834;2022-08-24T12:00:12;113.85;;;106.90;;
35376;SDS011;21480;51.642;4.834;2022-08-24T12:13:45;112.20;;;105.18;;
35376;SDS011;21480;51.642;4.834;2022-08-24T12:16:29;112.47;;;105.47;;
35376;SDS011;21480;51.642;4.834;2022-08-24T12:19:15;112.13;;;105.22;;
35376;SDS011;21480;51.642;4.834;2022-08-24T12:21:49;111.32;;;104.53;;
35376;SDS011;21480;51.642;4.834;2022-08-24T12:26:55;110.65;;;103.90;;
35376;SDS011;21480;51.642;4.834;2022-08-24T12:32:12;110.00;;;103.18;;
35376;SDS011;21480;51.642;4.834;2022-08-24T12:37:08;109.82;;;103.10;;
35376;SDS011;21480;51.642;4.834;2022-08-24T12:39:59;110.80;;;104.10;;
35376;SDS011;21480;51.642;4.834;2022-08-24T12:42:48;110.00;;;103.50;;
35376;SDS011;21480;51.642;4.834;2022-08-24T12:45:21;108.07;;;101.68;;
35376;SDS011;21480;51.642;4.834;2022-08-24T12:58:50;108.22;;;101.78;;
35376;SDS011;21480;51.642;4.834;2022-08-24T13:01:37;108.57;;;102.22;;
35376;SDS011;21480;51.642;4.834;2022-08-24T13:09:38;107.70;;;101.35;;
35376;SDS011;21480;51.642;4.834;2022-08-24T13:15:17;107.07;;;100.88;;
35376;SDS011;21480;51.642;4.834;2022-08-24T13:33:18;101.30;;;95.55;;
35376;SDS011;21480;51.642;4.834;2022-08-24T13:38:29;102.40;;;96.70;;
35376;SDS011;21480;51.642;4.834;2022-08-24T13:48:52;101.75;;;96.07;;
35376;SDS011;21480;51.642;4.834;2022-08-24T13:51:35;98.70;;;92.93;;
35376;SDS011;21480;51.642;4.834;2022-08-24T14:05:23;101.10;;;95.50;;
35376;SDS011;21480;51.642;4.834;2022-08-24T14:10:48;104.93;;;98.80;;
35376;SDS011;21480;51.642;4.834;2022-08-24T14:13:44;103.82;;;98.00;;
35376;SDS011;21480;51.642;4.834;2022-08-24T14:16:38;103.85;;;97.90;;
35376;SDS011;21480;51.642;4.834;2022-08-24T14:25:20;103.97;;;97.97;;
35376;SDS011;21480;51.642;4.834;2022-08-24T14:35:34;105.95;;;99.40;;
35376;SDS011;21480;51.642;4.834;2022-08-24T14:38:11;106.53;;;100.32;;
35376;SDS011;21480;51.642;4.834;2022-08-24T14:40:57;109.40;;;102.90;;
35376;SDS011;21480;51.642;4.834;2022-08-24T14:43:29;107.05;;;100.75;;
35376;SDS011;21480;51.642;4.834;2022-08-24T14:52:00;108.68;;;102.38;;
35376;SDS011;21480;51.642;4.834;2022-08-24T15:00:20;109.13;;;102.45;;
35376;SDS011;21480;51.642;4.834;2022-08-24T15:08:33;105.60;;;99.38;;
35376;SDS011;21480;51.642;4.834;2022-08-24T15:11:08;105.78;;;99.20;;
35376;SDS011;21480;51.642;4.834;2022-08-24T15:13:47;104.35;;;98.28;;
35376;SDS011;21480;51.642;4.834;2022-08-24T15:16:26;107.65;;;101.20;;
35376;SDS011;21480;51.642;4.834;2022-08-24T15:27:31;106.25;;;100.18;;
35376;SDS011;21480;51.642;4.834;2022-08-24T15:30:25;106.50;;;100.20;;
35376;SDS011;21480;51.642;4.834;2022-08-24T15:33:01;106.72;;;100.63;;
35376;SDS011;21480;51.642;4.834;2022-08-24T15:41:04;104.93;;;98.78;;
35376;SDS011;21480;51.642;4.834;2022-08-24T15:46:24;105.95;;;99.85;;
35376;SDS011;21480;51.642;4.834;2022-08-24T15:49:31;107.45;;;101.03;;
35376;SDS011;21480;51.642;4.834;2022-08-24T15:52:09;106.82;;;100.43;;
35376;SDS011;21480;51.642;4.834;2022-08-24T15:55:04;110.35;;;103.50;;
35376;SDS011;21480;51.642;4.834;2022-08-24T15:57:36;109.45;;;102.68;;
35376;SDS011;21480;51.642;4.834;2022-08-24T16:00:13;110.05;;;103.38;;
35376;SDS011;21480;51.642;4.834;2022-08-24T16:03:20;112.28;;;105.53;;
35376;SDS011;21480;51.642;4.834;2022-08-24T16:06:23;111.68;;;104.72;;
35376;SDS011;21480;51.642;4.834;2022-08-24T16:11:38;112.75;;;105.72;;
35376;SDS011;21480;51.642;4.834;2022-08-24T16:14:26;114.05;;;107.03;;
35376;SDS011;21480;51.642;4.834;2022-08-24T16:16:55;115.65;;;108.15;;
35376;SDS011;21480;51.642;4.834;2022-08-24T16:19:25;113.63;;;106.72;;
35376;SDS011;21480;51.642;4.834;2022-08-24T16:21:59;115.68;;;108.35;;
35376;SDS011;21480;51.642;4.834;2022-08-24T16:24:31;114.38;;;107.38;;
35376;SDS011;21480;51.642;4.834;2022-08-24T16:27:03;116.53;;;109.30;;
35376;SDS011;21480;51.642;4.834;2022-08-24T16:34:37;115.10;;;107.82;;
35376;SDS011;21480;51.642;4.834;2022-08-24T16:37:05;119.43;;;111.88;;
35376;SDS011;21480;51.642;4.834;2022-08-24T16:39:33;116.65;;;109.35;;
35376;SDS011;21480;51.642;4.834;2022-08-24T16:42:00;117.93;;;110.53;;
35376;SDS011;21480;51.642;4.834;2022-08-24T16:44:28;116.57;;;108.75;;
35376;SDS011;21480;51.642;4.834;2022-08-24T16:46:59;118.00;;;110.22;;
35376;SDS011;21480;51.642;4.834;2022-08-24T16:49:25;116.90;;;109.28;;
35376;SDS011;21480;51.642;4.834;2022-08-24T16:51:51;118.07;;;110.47;;
35376;SDS011;21480;51.642;4.834;2022-08-24T16:54:17;117.00;;;109.40;;
35376;SDS011;21480;51.642;4.834;2022-08-24T16:56:43;117.22;;;109.35;;
35376;SDS011;21480;51.642;4.834;2022-08-24T16:59:25;117.05;;;109.50;;
35376;SDS011;21480;51.642;4.834;2022-08-24T17:01:53;117.13;;;109.25;;
35376;SDS011;21480;51.642;4.834;2022-08-24T17:04:19;117.35;;;109.85;;
35376;SDS011;21480;51.642;4.834;2022-08-24T17:06:46;116.60;;;109.03;;
35376;SDS011;21480;51.642;4.834;2022-08-24T17:09:14;116.82;;;109.25;;
35376;SDS011;21480;51.642;4.834;2022-08-24T17:11:40;115.82;;;108.43;;
35376;SDS011;21480;51.642;4.834;2022-08-24T17:14:06;118.25;;;110.75;;
35376;SDS011;21480;51.642;4.834;2022-08-24T17:16:33;116.40;;;108.85;;
35376;SDS011;21480;51.642;4.834;2022-08-24T17:18:59;119.60;;;111.50;;
35376;SDS011;21480;51.642;4.834;2022-08-24T17:21:28;116.57;;;109.07;;
35376;SDS011;21480;51.642;4.834;2022-08-24T17:23:53;118.47;;;110.82;;
35376;SDS011;21480;51.642;4.834;2022-08-24T17:26:19;116.07;;;108.60;;
35376;SDS011;21480;51.642;4.834;2022-08-24T17:28:45;115.82;;;108.43;;
35376;SDS011;21480;51.642;4.834;2022-08-24T17:31:14;119.03;;;110.45;;
35376;SDS011;21480;51.642;4.834;2022-08-24T17:33:39;117.95;;;109.18;;
35376;SDS011;21480;51.642;4.834;2022-08-24T17:36:06;117.18;;;109.65;;
35376;SDS011;21480;51.642;4.834;2022-08-24T17:38:35;116.13;;;108.43;;
35376;SDS011;21480;51.642;4.834;2022-08-24T17:41:06;118.00;;;110.18;;
35376;SDS011;21480;51.642;4.834;2022-08-24T17:43:33;116.72;;;109.13;;
35376;SDS011;21480;51.642;4.834;2022-08-24T17:45:59;120.40;;;110.80;;
35376;SDS011;21480;51.642;4.834;2022-08-24T17:48:25;116.72;;;108.88;;
35376;SDS011;21480;51.642;4.834;2022-08-24T17:50:52;116.63;;;108.65;;
35376;SDS011;21480;51.642;4.834;2022-08-24T17:53:18;116.10;;;108.57;;
35376;SDS011;21480;51.642;4.834;2022-08-24T17:55:45;116.60;;;109.13;;
35376;SDS011;21480;51.642;4.834;2022-08-24T17:58:11;116.70;;;109.40;;
35376;SDS011;21480;51.642;4.834;2022-08-24T18:00:38;115.70;;;108.30;;
35376;SDS011;21480;51.642;4.834;2022-08-24T18:03:04;118.03;;;110.43;;
35376;SDS011;21480;51.642;4.834;2022-08-24T18:05:30;116.15;;;108.53;;
35376;SDS011;21480;51.642;4.834;2022-08-24T18:07:57;116.18;;;108.60;;
35376;SDS011;21480;51.642;4.834;2022-08-24T18:10:27;114.93;;;107.55;;
35376;SDS011;21480;51.642;4.834;2022-08-24T18:12:56;115.70;;;108.32;;
35376;SDS011;21480;51.642;4.834;2022-08-24T18:15:23;115.47;;;107.93;;
35376;SDS011;21480;51.642;4.834;2022-08-24T18:17:52;116.20;;;108.45;;
35376;SDS011;21480;51.642;4.834;2022-08-24T18:20:20;117.32;;;109.68;;
35376;SDS011;21480;51.642;4.834;2022-08-24T18:22:51;116.97;;;109.38;;
35376;SDS011;21480;51.642;4.834;2022-08-24T18:25:18;116.80;;;109.40;;
35376;SDS011;21480;51.642;4.834;2022-08-24T18:27:44;117.85;;;109.88;;
35376;SDS011;21480;51.642;4.834;2022-08-24T18:30:28;118.13;;;110.50;;
35376;SDS011;21480;51.642;4.834;2022-08-24T18:32:55;116.40;;;108.72;;